Time,TemperatureF,DewpointF,PressureIn,WindDirection,WindDirectionDegrees,WindSpeedMPH,WindSpeedGustMPH,Humidity,HourlyPrecipIn,Conditions,Clouds,dailyrainin,SoftwareType,DateUTC
2013-09-23 00:11:00,56.0,48.0,28.82,NNW,348,0.0,1.0,75,0.00,,,0.00,,2013-09-23 07:11:00,
2013-09-23 00:21:00,56.0,48.0,28.82,NNW,348,0.0,0.0,75,0.00,,,0.00,,2013-09-23 07:21:00,
2013-09-23 00:42:00,55.0,48.0,28.82,SW,215,0.0,3.0,76,0.00,,,0.00,,2013-09-23 07:42:00,
2013-09-23 00:52:00,55.0,48.0,28.82,SW,215,0.0,0.0,77,0.00,,,0.00,,2013-09-23 07:52:00,
2013-09-23 01:11:00,54.0,48.0,28.82,SW,215,0.0,1.0,79,0.00,,,0.00,,2013-09-23 08:11:00,
2013-09-23 01:22:00,53.0,47.0,28.82,SW,215,0.0,0.0,80,0.00,,,0.00,,2013-09-23 08:22:00,
2013-09-23 01:42:00,53.0,47.0,28.82,SW,215,0.0,0.0,80,0.00,,,0.00,,2013-09-23 08:42:00,
2013-09-23 01:52:00,53.0,48.0,28.82,SW,215,0.0,0.0,82,0.00,,,0.00,,2013-09-23 08:52:00,
2013-09-23 02:11:00,52.0,47.0,28.82,SW,215,0.0,0.0,83,0.00,,,0.00,,2013-09-23 09:11:00,
2013-09-23 02:21:00,52.0,47.0,28.82,SW,215,0.0,0.0,84,0.00,,,0.00,,2013-09-23 09:21:00,
2013-09-23 02:42:00,51.0,46.0,28.83,SW,215,0.0,0.0,84,0.00,,,0.00,,2013-09-23 09:42:00,
2013-09-23 02:53:00,51.0,47.0,28.82,SW,215,0.0,0.0,85,0.00,,,0.00,,2013-09-23 09:53:00,
2013-09-23 03:12:00,51.0,47.0,28.82,SW,215,0.0,0.0,86,0.00,,,0.00,,2013-09-23 10:12:00,
2013-09-23 03:23:00,51.0,47.0,28.82,SW,215,0.0,0.0,86,0.00,,,0.00,,2013-09-23 10:23:00,
2013-09-23 03:42:00,50.0,46.0,28.82,SW,215,0.0,0.0,87,0.00,,,0.00,,2013-09-23 10:42:00,
2013-09-23 03:52:00,50.0,46.0,28.82,SW,215,0.0,0.0,87,0.00,,,0.00,,2013-09-23 10:52:00,
2013-09-23 04:12:00,50.0,46.0,28.82,SW,215,0.0,0.0,87,0.00,,,0.00,,2013-09-23 11:12:00,
2013-09-23 04:21:00,49.0,46.0,28.81,SW,215,0.0,0.0,88,0.00,,,0.00,,2013-09-23 11:21:00,
2013-09-23 04:42:00,49.0,46.0,28.82,SW,215,0.0,0.0,89,0.00,,,0.00,,2013-09-23 11:42:00,
2013-09-23 04:52:00,49.0,46.0,28.81,SW,215,0.0,0.0,89,0.00,,,0.00,,2013-09-23 11:52:00,
2013-09-23 05:11:00,49.0,46.0,28.81,SW,215,0.0,0.0,89,0.00,,,0.00,,2013-09-23 12:11:00,
2013-09-23 05:22:00,49.0,46.0,28.81,SW,215,0.0,0.0,89,0.00,,,0.00,,2013-09-23 12:22:00,
2013-09-23 05:52:00,48.0,45.0,28.81,SW,215,0.0,0.0,90,0.00,,,0.00,,2013-09-23 12:52:00,
2013-09-23 06:11:00,48.0,45.0,28.82,SW,215,0.0,0.0,90,0.00,,,0.00,,2013-09-23 13:11:00,
2013-09-23 06:21:00,48.0,45.0,28.82,SW,215,0.0,0.0,91,0.00,,,0.00,,2013-09-23 13:21:00,
2013-09-23 06:42:00,48.0,45.0,28.82,SW,215,0.0,0.0,91,0.00,,,0.00,,2013-09-23 13:42:00,
2013-09-23 06:52:00,48.0,45.0,28.82,SW,215,0.0,0.0,91,0.00,,,0.00,,2013-09-23 13:52:00,
2013-09-23 07:11:00,48.0,45.0,28.82,SW,215,0.0,0.0,91,0.00,,,0.00,,2013-09-23 14:11:00,
2013-09-23 07:21:00,47.0,45.0,28.82,SW,215,0.0,0.0,91,0.00,,,0.00,,2013-09-23 14:21:00,
2013-09-23 07:42:00,47.0,45.0,28.83,SW,215,0.0,0.0,92,0.00,,,0.00,,2013-09-23 14:42:00,
2013-09-23 07:52:00,47.0,45.0,28.83,SW,215,0.0,0.0,92,0.00,,,0.00,,2013-09-23 14:52:00,
2013-09-23 08:11:00,47.0,45.0,28.83,SW,215,0.0,0.0,92,0.00,,,0.00,,2013-09-23 15:11:00,
2013-09-23 08:21:00,48.0,46.0,28.83,SW,215,0.0,0.0,93,0.00,,,0.00,,2013-09-23 15:21:00,
2013-09-23 08:43:00,48.0,46.0,28.84,SW,215,0.0,0.0,93,0.00,,,0.00,,2013-09-23 15:43:00,
2013-09-23 08:54:00,49.0,47.0,28.84,SW,215,0.0,0.0,93,0.00,,,0.00,,2013-09-23 15:54:00,
2013-09-23 09:12:00,50.0,48.0,28.84,SW,215,0.0,0.0,92,0.00,,,0.00,,2013-09-23 16:12:00,
2013-09-23 09:23:00,53.0,50.0,28.84,SW,215,0.0,0.0,89,0.00,,,0.00,,2013-09-23 16:23:00,
2013-09-23 09:53:00,58.0,52.0,28.84,SW,215,0.0,0.0,79,0.00,,,0.00,,2013-09-23 16:53:00,
2013-09-23 10:12:00,60.0,52.0,28.84,SW,216,0.0,1.0,75,0.00,,,0.00,,2013-09-23 17:12:00,
2013-09-23 10:24:00,63.0,53.0,28.84,SW,216,0.0,0.0,70,0.00,,,0.00,,2013-09-23 17:24:00,
2013-09-23 10:42:00,66.0,55.0,28.84,SSW,201,0.0,2.0,67,0.00,,,0.00,,2013-09-23 17:42:00,
2013-09-23 10:52:00,67.0,54.0,28.84,SSW,196,0.0,1.0,63,0.00,,,0.00,,2013-09-23 17:52:00,
2013-09-23 11:12:00,69.0,55.0,28.84,West,264,0.0,2.0,61,0.00,,,0.00,,2013-09-23 18:12:00,
2013-09-23 11:21:00,71.0,54.0,28.83,WSW,256,0.0,2.0,56,0.00,,,0.00,,2013-09-23 18:21:00,
2013-09-23 11:42:00,73.0,55.0,28.83,SW,223,0.0,2.0,54,0.00,,,0.00,,2013-09-23 18:42:00,
2013-09-23 11:52:00,74.0,53.0,28.83,SE,146,1.0,4.0,48,0.00,,,0.00,,2013-09-23 18:52:00,
2013-09-23 12:12:00,76.0,54.0,28.83,SSE,161,2.0,4.0,46,0.00,,,0.00,,2013-09-23 19:12:00,
2013-09-23 12:22:00,77.0,56.0,28.82,SSW,199,0.0,3.0,48,0.00,,,0.00,,2013-09-23 19:22:00,
2013-09-23 12:42:00,80.0,53.0,28.82,NE,50,1.0,3.0,40,0.00,,,0.00,,2013-09-23 19:42:00,
2013-09-23 12:53:00,79.0,53.0,28.82,ENE,57,1.0,3.0,40,0.00,,,0.00,,2013-09-23 19:53:00,
2013-09-23 13:12:00,81.0,54.0,28.81,North,11,0.0,3.0,40,0.00,,,0.00,,2013-09-23 20:12:00,
2013-09-23 13:21:00,81.0,54.0,28.80,WSW,247,1.0,4.0,40,0.00,,,0.00,,2013-09-23 20:21:00,
2013-09-23 13:42:00,80.0,53.0,28.80,SW,225,0.0,5.0,40,0.00,,,0.00,,2013-09-23 20:42:00,
2013-09-23 13:52:00,83.0,54.0,28.79,NW,317,0.0,3.0,37,0.00,,,0.00,,2013-09-23 20:52:00,
2013-09-23 14:11:00,84.0,55.0,28.79,WSW,247,0.0,3.0,37,0.00,,,0.00,,2013-09-23 21:11:00,
2013-09-23 14:23:00,83.0,54.0,28.78,WSW,257,1.0,4.0,37,0.00,,,0.00,,2013-09-23 21:23:00,
2013-09-23 14:44:00,82.0,53.0,28.78,SSW,209,1.0,4.0,37,0.00,,,0.00,,2013-09-23 21:44:00,
2013-09-23 14:54:00,82.0,53.0,28.77,SW,236,1.0,4.0,37,0.00,,,0.00,,2013-09-23 21:54:00,
2013-09-23 15:13:00,83.0,54.0,28.77,WSW,247,1.0,5.0,37,0.00,,,0.00,,2013-09-23 22:13:00,
2013-09-23 15:23:00,82.0,52.0,28.77,SE,136,0.0,4.0,36,0.00,,,0.00,,2013-09-23 22:23:00,
2013-09-23 15:43:00,83.0,55.0,28.76,SSW,205,1.0,3.0,39,0.00,,,0.00,,2013-09-23 22:43:00,
2013-09-23 15:54:00,83.0,55.0,28.76,South,180,1.0,3.0,38,0.00,,,0.00,,2013-09-23 22:54:00,
2013-09-23 16:12:00,83.0,55.0,28.75,WSW,255,1.0,5.0,38,0.00,,,0.00,,2013-09-23 23:12:00,
2013-09-23 16:22:00,83.0,55.0,28.75,SW,224,1.0,4.0,38,0.00,,,0.00,,2013-09-23 23:22:00,
2013-09-23 16:53:00,83.0,53.0,28.75,SW,217,1.0,4.0,36,0.00,,,0.00,,2013-09-23 23:53:00,
2013-09-23 17:11:00,83.0,53.0,28.74,South,190,2.0,5.0,36,0.00,,,0.00,,2013-09-24 00:11:00,
2013-09-23 17:22:00,81.0,52.0,28.74,SW,219,2.0,5.0,37,0.00,,,0.00,,2013-09-24 00:22:00,
2013-09-23 17:42:00,81.0,52.0,28.73,SW,217,1.0,4.0,37,0.00,,,0.00,,2013-09-24 00:42:00,
2013-09-23 17:52:00,81.0,52.0,28.73,SW,221,2.0,5.0,37,0.00,,,0.00,,2013-09-24 00:52:00,
2013-09-23 18:12:00,80.0,52.0,28.73,SSW,212,1.0,4.0,38,0.00,,,0.00,,2013-09-24 01:12:00,
2013-09-23 18:21:00,80.0,53.0,28.73,SW,224,2.0,4.0,39,0.00,,,0.00,,2013-09-24 01:21:00,
2013-09-23 18:43:00,79.0,53.0,28.73,WNW,286,0.0,5.0,40,0.00,,,0.00,,2013-09-24 01:43:00,
2013-09-23 18:52:00,78.0,54.0,28.73,SW,220,1.0,3.0,44,0.00,,,0.00,,2013-09-24 01:52:00,
2013-09-23 19:12:00,77.0,55.0,28.73,West,278,0.0,4.0,46,0.00,,,0.00,,2013-09-24 02:12:00,
2013-09-23 19:22:00,76.0,55.0,28.73,WSW,250,1.0,3.0,49,0.00,,,0.00,,2013-09-24 02:22:00,
2013-09-23 19:42:00,75.0,56.0,28.74,WSW,244,0.0,2.0,52,0.00,,,0.00,,2013-09-24 02:42:00,
2013-09-23 19:52:00,74.0,57.0,28.74,SW,232,1.0,3.0,55,0.00,,,0.00,,2013-09-24 02:52:00,
2013-09-23 20:12:00,73.0,57.0,28.74,SW,232,1.0,3.0,57,0.00,,,0.00,,2013-09-24 03:12:00,
2013-09-23 20:22:00,72.0,56.0,28.75,SW,232,0.0,2.0,58,0.00,,,0.00,,2013-09-24 03:22:00,
2013-09-23 20:44:00,71.0,56.0,28.75,SW,226,0.0,4.0,59,0.00,,,0.00,,2013-09-24 03:44:00,
2013-09-23 20:54:00,71.0,56.0,28.76,SW,230,0.0,1.0,60,0.00,,,0.00,,2013-09-24 03:54:00,
2013-09-23 21:14:00,70.0,56.0,28.76,SW,231,0.0,2.0,61,0.00,,,0.00,,2013-09-24 04:14:00,
2013-09-23 21:23:00,69.0,55.0,28.76,SW,231,0.0,0.0,62,0.00,,,0.00,,2013-09-24 04:23:00,
2013-09-23 21:44:00,68.0,54.0,28.77,NNW,332,1.0,5.0,60,0.00,,,0.00,,2013-09-24 04:44:00,
2013-09-23 21:54:00,68.0,53.0,28.77,NW,315,0.0,2.0,59,0.00,,,0.00,,2013-09-24 04:54:00,
2013-09-23 22:13:00,68.0,53.0,28.77,NW,323,0.0,2.0,59,0.00,,,0.00,,2013-09-24 05:13:00,
2013-09-23 22:22:00,67.0,53.0,28.77,NW,324,0.0,1.0,60,0.00,,,0.00,,2013-09-24 05:22:00,
2013-09-23 22:53:00,65.0,52.0,28.77,ENE,62,0.0,3.0,63,0.00,,,0.00,,2013-09-24 05:53:00,
2013-09-23 23:12:00,65.0,52.0,28.77,NE,45,0.0,0.0,63,0.00,,,0.00,,2013-09-24 06:12:00,
2013-09-23 23:22:00,65.0,53.0,28.77,NNE,17,1.0,3.0,64,0.00,,,0.00,,2013-09-24 06:22:00,
2013-09-23 23:42:00,65.0,52.0,28.77,NNE,13,1.0,4.0,62,0.00,,,0.00,,2013-09-24 06:42:00,
2013-09-23 23:52:00,64.0,51.0,28.76,NNE,12,2.0,4.0,62,0.00,,,0.00,,2013-09-24 06:52:00,